Time,TemperatureF,DewpointF,PressureIn,WindDirection,WindDirectionDegrees,WindSpeedMPH,WindSpeedGustMPH,Humidity,HourlyPrecipIn,Conditions,Clouds,dailyrainin,SoftwareType,DateUTC
2013-03-19 00:02:00,25.0,21.0,29.89,West,277,17.0,21.0,86,0.00,,,0.01,,2013-03-19 05:02:00,
2013-03-19 00:12:00,25.0,21.0,29.89,West,277,17.0,21.0,86,0.00,,,0.01,,2013-03-19 05:12:00,
2013-03-19 00:22:00,25.0,22.0,29.90,West,280,13.0,17.0,87,0.00,,,0.01,,2013-03-19 05:22:00,
2013-03-19 00:32:00,25.0,21.0,29.90,WSW,257,16.0,24.0,84,0.00,,,0.01,,2013-03-19 05:32:00,
2013-03-19 00:43:00,25.0,21.0,29.90,WSW,257,16.0,24.0,84,0.00,,,0.01,,2013-03-19 05:43:00,
2013-03-19 00:52:00,25.0,21.0,29.90,West,263,16.0,23.0,85,0.00,,,0.01,,2013-03-19 05:52:00,
2013-03-19 01:02:00,25.0,21.0,29.90,West,280,12.0,22.0,86,0.00,,,0.01,,2013-03-19 06:02:00,
2013-03-19 01:12:00,25.0,21.0,29.90,West,280,12.0,22.0,86,0.00,,,0.01,,2013-03-19 06:12:00,
2013-03-19 01:22:00,25.0,21.0,29.90,WNW,287,17.0,20.0,85,0.00,,,0.01,,2013-03-19 06:22:00,
2013-03-19 01:32:00,25.0,21.0,29.90,WNW,287,17.0,20.0,85,0.00,,,0.01,,2013-03-19 06:32:00,
2013-03-19 01:42:00,25.0,21.0,29.90,WNW,287,17.0,20.0,85,0.00,,,0.01,,2013-03-19 06:42:00,
2013-03-19 01:52:00,24.0,21.0,29.89,WNW,291,14.0,20.0,87,0.00,,,0.01,,2013-03-19 06:52:00,
2013-03-19 02:02:00,24.0,21.0,29.89,WNW,291,14.0,20.0,87,0.00,,,0.01,,2013-03-19 07:02:00,
2013-03-19 02:12:00,24.0,21.0,29.89,WNW,291,14.0,20.0,87,0.00,,,0.01,,2013-03-19 07:12:00,
2013-03-19 02:21:00,24.0,22.0,29.88,West,277,9.0,15.0,90,0.00,,,0.01,,2013-03-19 07:21:00,
2013-03-19 02:32:00,23.0,21.0,29.88,WNW,282,10.0,16.0,91,0.00,,,0.01,,2013-03-19 07:32:00,
2013-03-19 02:42:00,23.0,21.0,29.88,WNW,282,10.0,16.0,91,0.00,,,0.01,,2013-03-19 07:42:00,
2013-03-19 02:52:00,23.0,21.0,29.88,WNW,282,10.0,16.0,91,0.00,,,0.01,,2013-03-19 07:52:00,
2013-03-19 03:03:00,23.0,20.0,29.91,West,280,13.0,18.0,89,0.00,,,0.01,,2013-03-19 08:03:00,
2013-03-19 03:12:00,23.0,20.0,29.91,West,280,13.0,18.0,89,0.00,,,0.01,,2013-03-19 08:12:00,
2013-03-19 03:22:00,22.0,19.0,29.91,West,275,15.0,20.0,87,0.00,,,0.01,,2013-03-19 08:22:00,
2013-03-19 03:32:00,22.0,19.0,29.91,WNW,285,15.0,17.0,87,0.00,,,0.01,,2013-03-19 08:32:00,
2013-03-19 03:42:00,22.0,19.0,29.91,WNW,285,15.0,17.0,87,0.00,,,0.01,,2013-03-19 08:42:00,
2013-03-19 03:52:00,22.0,19.0,29.91,West,274,14.0,14.0,88,0.00,,,0.01,,2013-03-19 08:52:00,
2013-03-19 04:02:00,22.0,19.0,29.91,West,274,14.0,14.0,88,0.00,,,0.01,,2013-03-19 09:02:00,
2013-03-19 04:12:00,22.0,19.0,29.91,West,274,14.0,14.0,88,0.00,,,0.01,,2013-03-19 09:12:00,
2013-03-19 04:22:00,21.0,17.0,29.91,West,268,13.0,18.0,86,0.00,,,0.01,,2013-03-19 09:22:00,
2013-03-19 04:32:00,21.0,18.0,29.91,West,274,12.0,16.0,89,0.00,,,0.01,,2013-03-19 09:32:00,
2013-03-19 04:43:00,21.0,18.0,29.91,West,274,12.0,16.0,89,0.00,,,0.01,,2013-03-19 09:43:00,
2013-03-19 04:52:00,21.0,18.0,29.91,West,278,13.0,22.0,87,0.00,,,0.01,,2013-03-19 09:52:00,
2013-03-19 05:03:00,21.0,18.0,29.91,West,278,13.0,22.0,87,0.00,,,0.01,,2013-03-19 10:03:00,
2013-03-19 05:12:00,21.0,18.0,29.91,West,278,13.0,22.0,87,0.00,,,0.01,,2013-03-19 10:12:00,
2013-03-19 05:23:00,20.0,17.0,29.93,West,268,14.0,23.0,89,0.00,,,0.01,,2013-03-19 10:23:00,
2013-03-19 05:32:00,20.0,17.0,29.93,West,264,13.0,18.0,87,0.00,,,0.01,,2013-03-19 10:32:00,
2013-03-19 05:42:00,20.0,17.0,29.93,West,264,13.0,18.0,87,0.00,,,0.01,,2013-03-19 10:42:00,
2013-03-19 05:52:00,20.0,17.0,29.94,West,261,14.0,25.0,87,0.00,,,0.01,,2013-03-19 10:52:00,
2013-03-19 06:02:00,20.0,17.0,29.95,West,274,13.0,20.0,87,0.00,,,0.01,,2013-03-19 11:02:00,
2013-03-19 06:12:00,20.0,17.0,29.95,West,274,13.0,20.0,87,0.00,,,0.01,,2013-03-19 11:12:00,
2013-03-19 06:22:00,20.0,17.0,29.95,West,274,13.0,20.0,87,0.00,,,0.01,,2013-03-19 11:22:00,
2013-03-19 06:32:00,20.0,17.0,29.95,West,277,15.0,20.0,87,0.00,,,0.01,,2013-03-19 11:32:00,
2013-03-19 06:43:00,20.0,17.0,29.95,West,277,15.0,20.0,87,0.00,,,0.01,,2013-03-19 11:43:00,
2013-03-19 06:52:00,20.0,17.0,29.96,WNW,292,12.0,16.0,87,0.00,,,0.01,,2013-03-19 11:52:00,
2013-03-19 07:02:00,20.0,17.0,29.96,WNW,292,12.0,16.0,87,0.00,,,0.01,,2013-03-19 12:02:00,
2013-03-19 07:12:00,19.0,15.0,29.96,WNW,294,15.0,16.0,85,0.00,,,0.01,,2013-03-19 12:12:00,
2013-03-19 07:22:00,19.0,15.0,29.96,WNW,294,15.0,16.0,85,0.00,,,0.01,,2013-03-19 12:22:00,
2013-03-19 07:33:00,19.0,15.0,29.97,WNW,298,14.0,21.0,85,0.00,,,0.01,,2013-03-19 12:33:00,
2013-03-19 07:42:00,19.0,15.0,29.97,WNW,298,14.0,21.0,85,0.00,,,0.01,,2013-03-19 12:42:00,
2013-03-19 07:52:00,19.0,15.0,29.98,West,267,15.0,18.0,84,0.00,,,0.01,,2013-03-19 12:52:00,
2013-03-19 08:02:00,19.0,15.0,29.98,West,267,15.0,18.0,84,0.00,,,0.01,,2013-03-19 13:02:00,
2013-03-19 08:12:00,19.0,15.0,29.98,West,267,15.0,18.0,84,0.00,,,0.01,,2013-03-19 13:12:00,
2013-03-19 08:22:00,23.0,16.0,29.99,West,261,13.0,18.0,75,0.00,,,0.01,,2013-03-19 13:22:00,
2013-03-19 08:32:00,25.0,16.0,30.00,West,272,15.0,26.0,69,0.00,,,0.01,,2013-03-19 13:32:00,
2013-03-19 08:42:00,25.0,16.0,30.00,West,272,15.0,26.0,69,0.00,,,0.01,,2013-03-19 13:42:00,
2013-03-19 08:52:00,27.0,17.0,30.01,West,281,16.0,22.0,66,0.00,,,0.01,,2013-03-19 13:52:00,
2013-03-19 09:02:00,28.0,18.0,30.00,WNW,296,14.0,23.0,65,0.00,,,0.01,,2013-03-19 14:02:00,
2013-03-19 09:12:00,28.0,18.0,30.00,WNW,296,14.0,23.0,65,0.00,,,0.01,,2013-03-19 14:12:00,
2013-03-19 09:22:00,29.0,17.0,30.01,WNW,282,16.0,21.0,60,0.00,,,0.01,,2013-03-19 14:22:00,
2013-03-19 09:32:00,30.0,18.0,30.01,West,278,13.0,18.0,60,0.00,,,0.01,,2013-03-19 14:32:00,
2013-03-19 09:42:00,30.0,18.0,30.01,West,278,13.0,18.0,60,0.00,,,0.01,,2013-03-19 14:42:00,
2013-03-19 09:52:00,30.0,18.0,30.01,West,278,13.0,18.0,60,0.00,,,0.01,,2013-03-19 14:52:00,
2013-03-19 10:02:00,33.0,19.0,30.02,WNW,291,14.0,15.0,56,0.00,,,0.01,,2013-03-19 15:02:00,
2013-03-19 10:12:00,33.0,19.0,30.02,WNW,291,14.0,15.0,56,0.00,,,0.01,,2013-03-19 15:12:00,
2013-03-19 10:22:00,33.0,19.0,30.02,WNW,291,14.0,15.0,56,0.00,,,0.01,,2013-03-19 15:22:00,
2013-03-19 10:33:00,33.0,18.0,30.04,West,266,13.0,18.0,54,0.00,,,0.01,,2013-03-19 15:33:00,
2013-03-19 10:44:00,33.0,18.0,30.04,West,266,13.0,18.0,54,0.00,,,0.01,,2013-03-19 15:44:00,
2013-03-19 10:53:00,35.0,20.0,30.04,WSW,249,14.0,20.0,53,0.00,,,0.01,,2013-03-19 15:53:00,
2013-03-19 11:04:00,34.0,18.0,30.05,WSW,254,16.0,18.0,52,0.00,,,0.01,,2013-03-19 16:04:00,
2013-03-19 11:13:00,34.0,18.0,30.05,WSW,254,16.0,18.0,52,0.00,,,0.01,,2013-03-19 16:13:00,
2013-03-19 11:24:00,35.0,20.0,30.06,West,278,13.0,25.0,55,0.00,,,0.01,,2013-03-19 16:24:00,
2013-03-19 11:34:00,35.0,20.0,30.06,West,277,13.0,20.0,53,0.00,,,0.00,,2013-03-19 16:34:00,
2013-03-19 11:44:00,35.0,20.0,30.06,West,277,13.0,20.0,53,0.00,,,0.00,,2013-03-19 16:44:00,
2013-03-19 11:53:00,35.0,20.0,30.06,West,277,13.0,20.0,53,0.00,,,0.00,,2013-03-19 16:53:00,
2013-03-19 12:03:00,35.0,20.0,30.06,West,277,13.0,20.0,53,0.00,,,0.00,,2013-03-19 17:03:00,
2013-03-19 12:13:00,36.0,21.0,30.08,WNW,290,13.0,13.0,55,0.00,,,0.00,,2013-03-19 17:13:00,
2013-03-19 12:23:00,36.0,21.0,30.08,WNW,290,13.0,13.0,55,0.00,,,0.00,,2013-03-19 17:23:00,
2013-03-19 12:34:00,36.0,21.0,30.08,West,273,14.0,22.0,53,0.00,,,0.00,,2013-03-19 17:34:00,
2013-03-19 12:44:00,36.0,21.0,30.08,West,273,14.0,22.0,53,0.00,,,0.00,,2013-03-19 17:44:00,
2013-03-19 12:52:00,36.0,21.0,30.08,West,263,15.0,21.0,54,0.00,,,0.00,,2013-03-19 17:52:00,
2013-03-19 13:03:00,36.0,21.0,30.08,West,275,13.0,23.0,55,0.00,,,0.00,,2013-03-19 18:03:00,
2013-03-19 13:13:00,36.0,21.0,30.08,West,275,13.0,23.0,55,0.00,,,0.00,,2013-03-19 18:13:00,
2013-03-19 13:23:00,36.0,21.0,30.08,West,275,13.0,23.0,55,0.00,,,0.00,,2013-03-19 18:23:00,
2013-03-19 13:33:00,37.0,21.0,30.09,WNW,293,14.0,23.0,53,0.00,,,0.00,,2013-03-19 18:33:00,
2013-03-19 13:44:00,37.0,21.0,30.09,WNW,293,14.0,23.0,53,0.00,,,0.00,,2013-03-19 18:44:00,
2013-03-19 13:53:00,37.0,21.0,30.09,WNW,293,14.0,23.0,53,0.00,,,0.00,,2013-03-19 18:53:00,
2013-03-19 14:02:00,38.0,22.0,30.10,West,275,13.0,16.0,52,0.00,,,0.00,,2013-03-19 19:02:00,
2013-03-19 14:12:00,38.0,22.0,30.10,West,275,13.0,16.0,52,0.00,,,0.00,,2013-03-19 19:12:00,
2013-03-19 14:22:00,38.0,22.0,30.10,West,270,14.0,20.0,52,0.00,,,0.00,,2013-03-19 19:22:00,
2013-03-19 14:33:00,38.0,22.0,30.10,WNW,293,13.0,18.0,53,0.00,,,0.00,,2013-03-19 19:33:00,
2013-03-19 14:42:00,38.0,22.0,30.10,WNW,293,13.0,18.0,53,0.00,,,0.00,,2013-03-19 19:42:00,
2013-03-19 14:52:00,38.0,22.0,30.09,West,266,12.0,16.0,53,0.00,,,0.00,,2013-03-19 19:52:00,
2013-03-19 15:02:00,38.0,22.0,30.09,West,273,13.0,21.0,51,0.00,,,0.00,,2013-03-19 20:02:00,
2013-03-19 15:12:00,38.0,22.0,30.09,West,269,12.0,16.0,52,0.00,,,0.00,,2013-03-19 20:12:00,
2013-03-19 15:22:00,38.0,22.0,30.09,West,269,12.0,16.0,52,0.00,,,0.00,,2013-03-19 20:22:00,
2013-03-19 15:32:00,39.0,22.0,30.09,WNW,292,12.0,17.0,50,0.00,,,0.00,,2013-03-19 20:32:00,
2013-03-19 15:42:00,39.0,22.0,30.09,WNW,292,12.0,17.0,50,0.00,,,0.00,,2013-03-19 20:42:00,
2013-03-19 15:52:00,39.0,21.0,30.09,West,272,13.0,18.0,48,0.00,,,0.00,,2013-03-19 20:52:00,
2013-03-19 16:02:00,39.0,22.0,30.09,West,275,12.0,16.0,50,0.00,,,0.00,,2013-03-19 21:02:00,
2013-03-19 16:12:00,39.0,21.0,30.09,West,262,10.0,13.0,49,0.00,,,0.00,,2013-03-19 21:12:00,
2013-03-19 16:22:00,39.0,21.0,30.09,West,262,10.0,13.0,49,0.00,,,0.00,,2013-03-19 21:22:00,
2013-03-19 16:33:00,39.0,20.0,30.10,West,275,9.0,14.0,47,0.00,,,0.00,,2013-03-19 21:33:00,
2013-03-19 16:43:00,39.0,20.0,30.10,West,275,9.0,14.0,47,0.00,,,0.00,,2013-03-19 21:43:00,
2013-03-19 16:52:00,39.0,21.0,30.10,SW,229,10.0,15.0,49,0.00,,,0.00,,2013-03-19 21:52:00,
2013-03-19 17:03:00,39.0,20.0,30.10,West,274,12.0,14.0,47,0.00,,,0.00,,2013-03-19 22:03:00,
2013-03-19 17:12:00,39.0,20.0,30.10,West,274,12.0,14.0,47,0.00,,,0.00,,2013-03-19 22:12:00,
2013-03-19 17:23:00,39.0,20.0,30.10,West,274,12.0,14.0,47,0.00,,,0.00,,2013-03-19 22:23:00,
2013-03-19 17:33:00,39.0,20.0,30.10,West,274,12.0,14.0,47,0.00,,,0.00,,2013-03-19 22:33:00,
2013-03-19 17:44:00,38.0,21.0,30.11,West,268,12.0,21.0,49,0.00,,,0.00,,2013-03-19 22:44:00,
2013-03-19 17:53:00,38.0,21.0,30.11,West,268,12.0,21.0,49,0.00,,,0.00,,2013-03-19 22:53:00,
2013-03-19 18:02:00,38.0,21.0,30.11,WSW,251,10.0,18.0,49,0.00,,,0.00,,2013-03-19 23:02:00,
2013-03-19 18:12:00,38.0,22.0,30.11,WNW,283,10.0,16.0,52,0.00,,,0.00,,2013-03-19 23:12:00,
2013-03-19 18:22:00,38.0,22.0,30.11,WNW,283,10.0,16.0,52,0.00,,,0.00,,2013-03-19 23:22:00,
2013-03-19 18:32:00,38.0,22.0,30.11,West,272,9.0,13.0,51,0.00,,,0.00,,2013-03-19 23:32:00,
2013-03-19 18:42:00,38.0,22.0,30.11,West,272,9.0,13.0,51,0.00,,,0.00,,2013-03-19 23:42:00,
2013-03-19 18:52:00,37.0,22.0,30.11,WSW,253,10.0,18.0,54,0.00,,,0.00,,2013-03-19 23:52:00,
2013-03-19 19:02:00,36.0,21.0,30.11,West,273,10.0,16.0,54,0.00,,,0.00,,2013-03-20 00:02:00,
2013-03-19 19:13:00,36.0,21.0,30.11,West,273,10.0,16.0,54,0.00,,,0.00,,2013-03-20 00:13:00,
2013-03-19 19:22:00,36.0,22.0,30.12,West,270,7.0,9.0,56,0.00,,,0.00,,2013-03-20 00:22:00,
2013-03-19 19:33:00,35.0,22.0,30.12,West,264,9.0,12.0,59,0.00,,,0.00,,2013-03-20 00:33:00,
2013-03-19 19:42:00,35.0,22.0,30.12,West,264,9.0,12.0,59,0.00,,,0.00,,2013-03-20 00:42:00,
2013-03-19 19:52:00,34.0,22.0,30.12,West,274,6.0,7.0,62,0.00,,,0.00,,2013-03-20 00:52:00,
2013-03-19 20:03:00,33.0,23.0,30.13,West,270,5.0,7.0,65,0.00,,,0.00,,2013-03-20 01:03:00,
2013-03-19 20:12:00,33.0,23.0,30.13,West,270,5.0,7.0,65,0.00,,,0.00,,2013-03-20 01:12:00,
2013-03-19 20:22:00,33.0,23.0,30.13,West,270,5.0,7.0,65,0.00,,,0.00,,2013-03-20 01:22:00,
2013-03-19 20:32:00,32.0,23.0,30.14,NNW,333,1.0,10.0,68,0.00,,,0.00,,2013-03-20 01:32:00,
2013-03-19 20:43:00,32.0,23.0,30.14,NNW,333,1.0,10.0,68,0.00,,,0.00,,2013-03-20 01:43:00,
2013-03-19 20:53:00,32.0,22.0,30.14,West,266,8.0,10.0,67,0.00,,,0.00,,2013-03-20 01:53:00,
2013-03-19 21:02:00,32.0,22.0,30.14,West,279,7.0,10.0,65,0.00,,,0.00,,2013-03-20 02:02:00,
2013-03-19 21:12:00,32.0,22.0,30.14,West,279,7.0,10.0,65,0.00,,,0.00,,2013-03-20 02:12:00,
2013-03-19 21:22:00,31.0,21.0,30.14,West,273,8.0,9.0,67,0.00,,,0.00,,2013-03-20 02:22:00,
2013-03-19 21:32:00,31.0,21.0,30.14,West,270,7.0,9.0,67,0.00,,,0.00,,2013-03-20 02:32:00,
2013-03-19 21:42:00,31.0,21.0,30.14,West,270,7.0,9.0,67,0.00,,,0.00,,2013-03-20 02:42:00,
2013-03-19 21:52:00,31.0,22.0,30.13,WNW,282,7.0,8.0,68,0.00,,,0.00,,2013-03-20 02:52:00,
2013-03-19 22:02:00,30.0,22.0,30.13,WNW,282,8.0,9.0,71,0.00,,,0.00,,2013-03-20 03:02:00,
2013-03-19 22:12:00,30.0,22.0,30.13,West,279,7.0,8.0,72,0.00,,,0.00,,2013-03-20 03:12:00,
2013-03-19 22:22:00,30.0,22.0,30.13,West,279,7.0,8.0,72,0.00,,,0.00,,2013-03-20 03:22:00,
2013-03-19 22:33:00,29.0,21.0,30.13,West,267,8.0,10.0,73,0.00,,,0.00,,2013-03-20 03:33:00,
2013-03-19 22:42:00,29.0,21.0,30.13,West,267,8.0,10.0,73,0.00,,,0.00,,2013-03-20 03:42:00,
2013-03-19 22:53:00,30.0,22.0,30.13,West,271,8.0,12.0,72,0.00,,,0.00,,2013-03-20 03:53:00,
2013-03-19 23:03:00,30.0,22.0,30.12,West,281,8.0,9.0,73,0.00,,,0.00,,2013-03-20 04:03:00,
2013-03-19 23:12:00,30.0,22.0,30.12,West,281,8.0,9.0,73,0.00,,,0.00,,2013-03-20 04:12:00,
2013-03-19 23:22:00,29.0,22.0,30.12,WNW,286,6.0,9.0,74,0.00,,,0.00,,2013-03-20 04:22:00,
2013-03-19 23:32:00,29.0,22.0,30.12,WNW,289,6.0,7.0,75,0.00,,,0.00,,2013-03-20 04:32:00,
2013-03-19 23:43:00,29.0,22.0,30.12,WNW,289,6.0,7.0,75,0.00,,,0.00,,2013-03-20 04:43:00,
2013-03-19 23:52:00,28.0,21.0,30.12,WNW,282,6.0,8.0,76,0.00,,,0.00,,2013-03-20 04:52:00,